Time;durP1;ratioP1;P1;durP2;ratioP2;P2;SDS_P1;SDS_P2;PMS_P1;PMS_P2;Temp;Humidity;BMP_temperature;BMP_pressure;BME280_temperature;BME280_humidity;BME280_pressure;Samples;Min_cycle;Max_cycle;Signal;HPM_P1;HPM_P2
2022/08/05 06:05:15;;;;;;;6.97;6.38;;;;;;;;;;6282389;22;20026;-83
2022/08/05 06:07:42;;;;;;;6.40;5.90;;;;;;;;;;6314231;22;20045;-94
2022/08/05 06:10:08;;;;;;;7.53;6.90;;;;;;;;;;6311017;22;20010;-96
2022/08/05 06:12:35;;;;;;;6.93;6.32;;;;;;;;;;6324866;22;20015;-82
2022/08/05 06:15:25;;;;;;;6.15;5.65;;;;;;;;;;6318007;22;20009;-90
2022/08/05 09:50:12;;;;;;;5.68;5.28;;;;;;;;;;6308919;22;20015;-88
2022/08/05 09:52:38;;;;;;;5.93;5.40;;;;;;;;;;6318502;22;20012;-82
2022/08/05 09:55:10;;;;;;;5.95;5.05;;;;;;;;;;6314103;22;20074;-81
2022/08/05 09:57:44;;;;;;;5.90;5.40;;;;;;;;;;6309992;22;20003;-82
2022/08/05 10:00:12;;;;;;;6.60;5.47;;;;;;;;;;6310197;22;20334;-84
2022/08/05 10:02:44;;;;;;;6.20;5.35;;;;;;;;;;6310852;22;20078;-88
2022/08/05 10:05:12;;;;;;;6.95;6.10;;;;;;;;;;6311082;22;20003;-87
2022/08/05 10:07:49;;;;;;;8.77;5.75;;;;;;;;;;6312659;22;20003;-86
2022/08/05 10:10:16;;;;;;;6.68;6.00;;;;;;;;;;6309916;22;20003;-83
2022/08/05 10:12:41;;;;;;;6.20;5.57;;;;;;;;;;6308083;22;20426;-83
2022/08/05 10:15:19;;;;;;;4.72;4.30;;;;;;;;;;6313569;22;20006;-81
2022/08/05 10:18:09;;;;;;;6.88;4.57;;;;;;;;;;6311359;22;20064;-85
2022/08/05 10:20:41;;;;;;;4.63;4.20;;;;;;;;;;6299402;22;20003;-83
2022/08/05 10:23:09;;;;;;;4.10;3.78;;;;;;;;;;6311756;22;19999;-81
2022/08/05 10:25:35;;;;;;;5.90;4.30;;;;;;;;;;6311980;22;19995;-82
2022/08/05 10:28:01;;;;;;;5.95;4.30;;;;;;;;;;6310516;22;20029;-82
2022/08/05 10:30:27;;;;;;;5.10;4.60;;;;;;;;;;6310009;22;20013;-81
2022/08/05 10:32:53;;;;;;;4.47;4.10;;;;;;;;;;6310579;22;20010;-84
2022/08/05 10:35:19;;;;;;;6.43;4.60;;;;;;;;;;6310951;22;20003;-86
2022/08/05 10:37:46;;;;;;;6.10;4.70;;;;;;;;;;6309922;22;20477;-81
2022/08/05 10:40:21;;;;;;;4.38;3.95;;;;;;;;;;6311709;22;20090;-87
2022/08/05 10:42:51;;;;;;;4.75;4.18;;;;;;;;;;6311757;22;20084;-84
2022/08/05 10:45:25;;;;;;;6.22;4.85;;;;;;;;;;6309671;22;20048;-82
2022/08/05 10:47:50;;;;;;;7.03;5.10;;;;;;;;;;6311551;22;20010;-82
2022/08/05 10:50:17;;;;;;;5.18;4.78;;;;;;;;;;6313309;22;20062;-87
2022/08/05 10:52:46;;;;;;;4.07;3.78;;;;;;;;;;6310987;22;19999;-82
2022/08/05 10:55:12;;;;;;;;;;;;;;;;;;6312927;22;20003;-85
2022/08/05 10:57:42;;;;;;;4.50;4.20;;;;;;;;;;6309566;22;19907;-83
2022/08/05 11:00:39;;;;;;;4.35;4.05;;;;;;;;;;6310247;22;20010;-83
2022/08/05 11:03:04;;;;;;;4.32;4.03;;;;;;;;;;6308686;22;20003;-83
2022/08/05 11:05:34;;;;;;;5.40;3.58;;;;;;;;;;6310121;22;19999;-87
2022/08/05 11:08:07;;;;;;;4.22;3.60;;;;;;;;;;6311510;22;20010;-84
2022/08/05 11:10:36;;;;;;;3.50;3.30;;;;;;;;;;6315571;22;20002;-88
2022/08/05 11:13:02;;;;;;;4.68;3.40;;;;;;;;;;6314990;22;20005;-84
2022/08/05 11:15:34;;;;;;;3.92;3.53;;;;;;;;;;6310949;22;20017;-84
2022/08/05 11:18:26;;;;;;;4.88;4.40;;;;;;;;;;6310093;22;20023;-83
2022/08/05 11:20:51;;;;;;;3.45;3.15;;;;;;;;;;6310405;22;20003;-90
2022/08/05 11:23:56;;;;;;;3.00;2.78;;;;;;;;;;6311648;22;20329;-86
2022/08/05 11:26:23;;;;;;;4.00;3.05;;;;;;;;;;6308785;22;20007;-86
2022/08/05 11:28:53;;;;;;;2.63;2.53;;;;;;;;;;6309838;22;20377;-87
2022/08/05 11:31:21;;;;;;;3.13;2.83;;;;;;;;;;6311438;22;20415;-84
2022/08/05 11:33:47;;;;;;;4.07;2.97;;;;;;;;;;6310420;22;20003;-83
2022/08/05 11:36:39;;;;;;;3.40;3.10;;;;;;;;;;6308069;22;20095;-83
2022/08/05 11:39:10;;;;;;;2.90;2.65;;;;;;;;;;6307739;22;20004;-83
2022/08/05 11:41:37;;;;;;;2.60;2.38;;;;;;;;;;6313752;22;20000;-87
2022/08/05 11:44:11;;;;;;;3.03;2.63;;;;;;;;;;6323305;22;20055;-93
2022/08/05 11:46:49;;;;;;;2.60;2.40;;;;;;;;;;6325275;22;20006;-90
2022/08/05 11:49:16;;;;;;;2.75;2.55;;;;;;;;;;6323603;22;20003;-92
2022/08/05 11:51:43;;;;;;;3.38;2.28;;;;;;;;;;6311827;22;20018;-93
2022/08/05 11:54:19;;;;;;;4.82;2.38;;;;;;;;;;6326960;22;19988;-88
2022/08/05 11:56:48;;;;;;;2.40;2.28;;;;;;;;;;6329204;22;20007;-96
2022/08/05 11:59:16;;;;;;;2.03;1.92;;;;;;;;;;6319460;22;20123;-95
2022/08/05 12:01:54;;;;;;;4.60;2.15;;;;;;;;;;6322369;22;20233;-86
2022/08/05 12:04:20;;;;;;;2.25;2.05;;;;;;;;;;6324469;22;20047;-94
2022/08/05 12:06:46;;;;;;;3.70;2.70;;;;;;;;;;6325589;22;20068;-87
2022/08/05 12:09:16;;;;;;;2.97;2.33;;;;;;;;;;6325848;22;20010;-93
2022/08/05 12:11:44;;;;;;;4.25;2.10;;;;;;;;;;6322529;22;20055;-89
2022/08/05 12:14:09;;;;;;;;;;;;;;;;;;6324400;22;20430;-93
2022/08/05 12:16:37;;;;;;;2.78;2.10;;;;;;;;;;6321032;22;19907;-94
2022/08/05 12:19:06;;;;;;;;;;;;;;;;;;6325534;22;20003;-90
2022/08/05 12:21:35;;;;;;;2.83;2.08;;;;;;;;;;6321576;22;20352;-84
2022/08/05 12:24:16;;;;;;;2.38;2.05;;;;;;;;;;6321767;22;20046;-87
2022/08/05 12:26:45;;;;;;;3.65;2.10;;;;;;;;;;6317662;22;19999;-86
2022/08/05 12:29:18;;;;;;;2.42;2.20;;;;;;;;;;6318781;22;20307;-81
2022/08/05 12:32:04;;;;;;;2.17;1.98;;;;;;;;;;6313014;22;20015;-83
2022/08/05 12:34:37;;;;;;;2.40;1.90;;;;;;;;;;6315816;22;20003;-82
2022/08/05 12:37:09;;;;;;;2.22;2.08;;;;;;;;;;6314006;22;20014;-82
2022/08/05 12:39:38;;;;;;;2.50;2.30;;;;;;;;;;6314182;22;20011;-88
2022/08/05 12:42:11;;;;;;;2.90;2.67;;;;;;;;;;6314591;22;20018;-84
2022/08/05 12:44:37;;;;;;;2.13;2.03;;;;;;;;;;6319331;22;20373;-83
2022/08/05 12:47:04;;;;;;;2.47;2.28;;;;;;;;;;6317380;22;20019;-81
2022/08/05 12:49:59;;;;;;;3.17;2.30;;;;;;;;;;6312688;22;20000;-82
2022/08/05 12:52:26;;;;;;;3.67;2.00;;;;;;;;;;6290701;22;20023;-82
2022/08/05 12:54:51;;;;;;;2.50;2.30;;;;;;;;;;6319870;22;19999;-82
2022/08/05 12:57:17;;;;;;;2.00;1.63;;;;;;;;;;6308802;22;20034;-85
2022/08/05 12:59:51;;;;;;;4.20;2.03;;;;;;;;;;6321234;22;20007;-91
2022/08/05 13:02:24;;;;;;;2.30;2.10;;;;;;;;;;6328147;22;19999;-91
2022/08/05 13:04:51;;;;;;;2.58;2.10;;;;;;;;;;6332686;22;19998;-95
2022/08/05 13:07:20;;;;;;;2.78;2.30;;;;;;;;;;6330519;22;20014;-82
2022/08/05 13:09:53;;;;;;;4.90;2.45;;;;;;;;;;6322008;22;20007;-85
2022/08/05 13:12:22;;;;;;;7.40;2.33;;;;;;;;;;6327676;22;20000;-92
2022/08/05 13:15:00;;;;;;;2.00;1.90;;;;;;;;;;6329169;22;19995;-91
2022/08/05 13:17:27;;;;;;;2.38;2.15;;;;;;;;;;6315536;22;20027;-85
2022/08/05 13:20:19;;;;;;;2.70;2.45;;;;;;;;;;6313259;22;19999;-95
2022/08/05 13:22:50;;;;;;;2.08;1.98;;;;;;;;;;6310693;22;20010;-81
2022/08/05 13:25:18;;;;;;;2.60;2.40;;;;;;;;;;6320826;22;20006;-83
2022/08/05 13:27:47;;;;;;;2.55;2.10;;;;;;;;;;6320994;22;20080;-93
2022/08/05 13:30:17;;;;;;;3.95;2.42;;;;;;;;;;6318756;22;20018;-82
2022/08/05 13:32:47;;;;;;;4.93;2.38;;;;;;;;;;6318667;22;19999;-92
2022/08/05 13:35:13;;;;;;;3.53;2.08;;;;;;;;;;6321271;22;20444;-87
2022/08/05 13:37:40;;;;;;;4.85;2.10;;;;;;;;;;6315774;22;19999;-91
2022/08/05 13:40:07;;;;;;;4.18;2.42;;;;;;;;;;6318255;22;19999;-88
2022/08/05 13:42:32;;;;;;;2.80;2.45;;;;;;;;;;6313941;22;20003;-94
2022/08/05 13:44:58;;;;;;;2.53;2.30;;;;;;;;;;6316285;22;20010;-95
2022/08/05 13:47:24;;;;;;;2.83;2.63;;;;;;;;;;6318339;22;19995;-90
2022/08/05 13:49:50;;;;;;;3.25;2.70;;;;;;;;;;6316250;22;20011;-87
2022/08/05 13:52:18;;;;;;;3.58;2.38;;;;;;;;;;6315373;22;19999;-84
2022/08/05 13:54:44;;;;;;;2.88;2.55;;;;;;;;;;6312521;22;20003;-87
2022/08/05 13:57:10;;;;;;;5.43;2.80;;;;;;;;;;6316945;22;20048;-95
2022/08/05 13:59:37;;;;;;;3.08;2.78;;;;;;;;;;6316538;22;20078;-88
2022/08/05 14:02:04;;;;;;;3.90;2.70;;;;;;;;;;6315393;22;20010;-91
2022/08/05 14:07:23;;;;;;;2.90;2.38;;;;;;;;;;6314061;22;20009;-86
2022/08/05 14:09:49;;;;;;;2.80;2.40;;;;;;;;;;6314839;22;20307;-90
2022/08/05 14:12:15;;;;;;;2.60;2.40;;;;;;;;;;6314705;22;20007;-94
2022/08/05 14:14:40;;;;;;;3.78;2.85;;;;;;;;;;6313297;22;20042;-84
2022/08/05 14:17:06;;;;;;;4.00;2.67;;;;;;;;;;6317124;22;20271;-94
2022/08/05 14:19:31;;;;;;;2.67;2.47;;;;;;;;;;6317462;22;20236;-85
2022/08/05 14:21:57;;;;;;;3.22;2.42;;;;;;;;;;6315726;22;20000;-95
2022/08/05 14:24:23;;;;;;;2.83;2.42;;;;;;;;;;6316830;22;20033;-90
2022/08/05 14:26:48;;;;;;;2.90;2.55;;;;;;;;;;6316923;22;19999;-92
2022/08/05 14:29:14;;;;;;;2.95;2.50;;;;;;;;;;6318817;22;20326;-93
2022/08/05 14:31:39;;;;;;;2.58;2.38;;;;;;;;;;6318511;22;20079;-94
2022/08/05 14:34:05;;;;;;;3.17;2.85;;;;;;;;;;6316820;22;20003;-88
2022/08/05 14:36:30;;;;;;;4.10;2.28;;;;;;;;;;6317985;22;20013;-86
2022/08/05 14:38:55;;;;;;;2.70;2.50;;;;;;;;;;6317241;22;19999;-92
2022/08/05 14:41:21;;;;;;;3.05;2.50;;;;;;;;;;6316100;22;20084;-90
2022/08/05 14:43:46;;;;;;;3.05;2.70;;;;;;;;;;6317588;22;20004;-89
2022/08/05 14:46:12;;;;;;;3.50;2.70;;;;;;;;;;6317197;22;20041;-92
2022/08/05 14:48:37;;;;;;;3.40;2.95;;;;;;;;;;6319705;22;20000;-84
2022/08/05 14:51:03;;;;;;;5.07;3.50;;;;;;;;;;6317955;22;20015;-81
2022/08/05 14:53:29;;;;;;;3.95;2.72;;;;;;;;;;6317307;22;20000;-90
2022/08/05 14:55:54;;;;;;;3.70;2.40;;;;;;;;;;6313777;22;20062;-90
2022/08/05 14:58:19;;;;;;;4.03;2.42;;;;;;;;;;6315130;22;20003;-90
2022/08/05 15:00:45;;;;;;;2.85;2.40;;;;;;;;;;6315207;22;20402;-95
2022/08/05 15:03:10;;;;;;;3.92;2.42;;;;;;;;;;6322958;22;19999;-83
2022/08/05 15:05:36;;;;;;;3.78;3.30;;;;;;;;;;6321589;22;19999;-89
2022/08/05 15:08:02;;;;;;;3.08;2.70;;;;;;;;;;6319822;22;20086;-87
2022/08/05 15:10:28;;;;;;;6.15;2.60;;;;;;;;;;6319518;22;20007;-91
2022/08/05 15:12:54;;;;;;;2.65;2.45;;;;;;;;;;6326875;22;19999;-86
2022/08/05 15:15:19;;;;;;;3.47;3.17;;;;;;;;;;6318514;22;19999;-89
2022/08/05 15:17:45;;;;;;;3.03;2.72;;;;;;;;;;6317916;22;20004;-84
2022/08/05 15:20:11;;;;;;;6.93;3.28;;;;;;;;;;6319332;22;20335;-85
2022/08/05 15:22:37;;;;;;;3.47;3.17;;;;;;;;;;6325944;22;20003;-83
2022/08/05 15:25:03;;;;;;;3.40;3.20;;;;;;;;;;6325782;22;20014;-91
2022/08/05 15:27:29;;;;;;;5.25;3.03;;;;;;;;;;6324519;22;20010;-94
2022/08/05 15:29:56;;;;;;;4.35;2.92;;;;;;;;;;6325082;22;20414;-83
2022/08/05 15:32:21;;;;;;;4.03;3.60;;;;;;;;;;6328429;22;19999;-87
2022/08/05 15:34:47;;;;;;;4.38;3.30;;;;;;;;;;6322762;22;20030;-86
2022/08/05 15:37:12;;;;;;;6.07;3.03;;;;;;;;;;6321576;22;20008;-92
2022/08/05 15:39:38;;;;;;;6.05;3.42;;;;;;;;;;6318755;22;19999;-90
2022/08/05 15:42:03;;;;;;;8.75;5.72;;;;;;;;;;6315961;22;20007;-94
2022/08/05 15:44:29;;;;;;;14.55;10.25;;;;;;;;;;6317703;22;20505;-93
2022/08/05 15:46:55;;;;;;;7.35;5.78;;;;;;;;;;6322898;22;20015;-92
2022/08/05 15:49:20;;;;;;;5.57;4.15;;;;;;;;;;6323312;22;20078;-90
2022/08/05 15:51:46;;;;;;;3.15;2.90;;;;;;;;;;6323268;22;19999;-91
2022/08/05 15:54:11;;;;;;;3.25;2.72;;;;;;;;;;6325969;22;19992;-85
2022/08/05 15:56:37;;;;;;;3.95;2.70;;;;;;;;;;6324189;22;20026;-88
2022/08/05 15:59:03;;;;;;;3.05;2.83;;;;;;;;;;6322688;22;20008;-86
2022/08/05 16:01:28;;;;;;;3.80;2.78;;;;;;;;;;6322917;22;19999;-81
2022/08/05 16:03:55;;;;;;;5.88;2.90;;;;;;;;;;6324104;22;20045;-83
2022/08/05 16:06:22;;;;;;;3.33;2.70;;;;;;;;;;6323687;22;20011;-82
2022/08/05 16:08:48;;;;;;;3.13;2.90;;;;;;;;;;6322814;22;20078;-83
2022/08/05 16:11:14;;;;;;;4.78;3.20;;;;;;;;;;6322487;22;20010;-85
2022/08/05 16:13:39;;;;;;;4.72;2.72;;;;;;;;;;6324785;22;20003;-88
2022/08/05 16:16:05;;;;;;;2.78;2.58;;;;;;;;;;6323530;22;20011;-82
2022/08/05 16:18:33;;;;;;;2.83;2.58;;;;;;;;;;6319574;22;20005;-81
2022/08/05 16:21:00;;;;;;;3.78;2.80;;;;;;;;;;6323350;22;19995;-88
2022/08/05 16:23:27;;;;;;;3.60;3.30;;;;;;;;;;6323363;22;19999;-86
2022/08/05 16:26:03;;;;;;;3.40;3.10;;;;;;;;;;6322201;22;20003;-82
2022/08/05 16:28:29;;;;;;;4.28;3.03;;;;;;;;;;6321254;22;20022;-85
2022/08/05 16:30:54;;;;;;;5.38;2.88;;;;;;;;;;6321602;22;20003;-82
2022/08/05 16:33:19;;;;;;;3.00;2.80;;;;;;;;;;6320492;22;20033;-83
2022/08/05 16:35:45;;;;;;;4.15;2.90;;;;;;;;;;6324724;22;20026;-85
2022/08/05 16:38:10;;;;;;;2.95;2.75;;;;;;;;;;6324051;22;20433;-86
2022/08/05 16:40:36;;;;;;;3.45;3.15;;;;;;;;;;6326708;22;20038;-91
2022/08/05 16:43:01;;;;;;;3.72;3.33;;;;;;;;;;6322935;22;20003;-88
2022/08/05 16:45:26;;;;;;;3.78;3.47;;;;;;;;;;6325203;22;19999;-82
2022/08/05 16:47:52;;;;;;;4.88;3.40;;;;;;;;;;6328831;22;20082;-83
2022/08/05 16:50:17;;;;;;;3.90;3.60;;;;;;;;;;6330190;22;20011;-83
2022/08/05 16:52:43;;;;;;;3.13;2.80;;;;;;;;;;6328698;22;19995;-80
2022/08/05 16:55:08;;;;;;;3.45;2.97;;;;;;;;;;6327684;22;19990;-82
2022/08/05 16:57:34;;;;;;;2.85;2.47;;;;;;;;;;6332998;22;20043;-89
2022/08/05 17:00:01;;;;;;;3.38;3.08;;;;;;;;;;6337129;22;20010;-89
2022/08/05 17:02:28;;;;;;;16.88;13.05;;;;;;;;;;6333320;22;20030;-89
2022/08/05 17:04:53;;;;;;;5.97;5.38;;;;;;;;;;6332397;22;20003;-87
2022/08/05 17:07:19;;;;;;;5.45;3.45;;;;;;;;;;6333134;22;20007;-87
2022/08/05 17:09:44;;;;;;;137.93;88.28;;;;;;;;;;6333077;22;20015;-81
2022/08/05 17:12:10;;;;;;;39.30;26.48;;;;;;;;;;6334070;22;20003;-89
2022/08/05 17:14:35;;;;;;;15.35;11.23;;;;;;;;;;6333065;22;20019;-88
2022/08/05 17:17:02;;;;;;;105.18;56.05;;;;;;;;;;6331785;22;19983;-82
2022/08/05 17:19:28;;;;;;;217.38;115.75;;;;;;;;;;6331278;22;19983;-85
2022/08/05 17:21:53;;;;;;;191.38;97.03;;;;;;;;;;6331482;22;19994;-82
2022/08/05 17:24:19;;;;;;;55.47;29.60;;;;;;;;;;6331090;22;20057;-88
2022/08/05 17:26:44;;;;;;;67.38;36.45;;;;;;;;;;6330454;22;20078;-85
2022/08/05 17:29:09;;;;;;;62.15;33.20;;;;;;;;;;6330422;22;20051;-83
2022/08/05 17:31:35;;;;;;;39.70;22.23;;;;;;;;;;6330729;22;19999;-86
2022/08/05 17:34:00;;;;;;;43.80;24.63;;;;;;;;;;6327562;22;19999;-82
2022/08/05 17:36:26;;;;;;;156.25;79.90;;;;;;;;;;6329782;22;19999;-87
2022/08/05 17:38:53;;;;;;;54.55;29.63;;;;;;;;;;6329116;22;19999;-80
2022/08/05 17:41:20;;;;;;;62.00;32.08;;;;;;;;;;6330358;22;19999;-83
2022/08/05 17:43:45;;;;;;;62.85;32.83;;;;;;;;;;6327311;22;20003;-83
2022/08/05 17:46:11;;;;;;;91.00;47.17;;;;;;;;;;6325288;22;20069;-85
2022/08/05 17:48:36;;;;;;;59.00;28.80;;;;;;;;;;6326087;22;20003;-83
2022/08/05 17:51:02;;;;;;;66.70;33.90;;;;;;;;;;6323548;22;20018;-84
2022/08/05 17:53:27;;;;;;;90.72;43.10;;;;;;;;;;6322656;22;20086;-82
2022/08/05 17:55:53;;;;;;;63.05;33.88;;;;;;;;;;6322565;22;20029;-83
2022/08/05 17:58:18;;;;;;;83.07;43.22;;;;;;;;;;6320771;22;20007;-81
2022/08/05 18:00:45;;;;;;;30.40;17.67;;;;;;;;;;6324709;22;20077;-82
2022/08/05 18:03:13;;;;;;;22.15;12.60;;;;;;;;;;6353436;22;20014;-84
2022/08/05 18:05:38;;;;;;;18.70;10.30;;;;;;;;;;6358861;22;20030;-83
2022/08/05 18:08:04;;;;;;;16.58;10.40;;;;;;;;;;6356145;22;20006;-85
2022/08/05 18:10:29;;;;;;;32.25;16.95;;;;;;;;;;6358664;22;20361;-83
2022/08/05 18:12:55;;;;;;;25.33;14.43;;;;;;;;;;6356341;22;19999;-83
2022/08/05 18:15:20;;;;;;;7.43;4.57;;;;;;;;;;6353727;22;19995;-83
2022/08/05 18:17:46;;;;;;;14.35;6.85;;;;;;;;;;6352648;22;20048;-84
2022/08/05 18:20:11;;;;;;;30.15;17.48;;;;;;;;;;6352541;22;20010;-83
2022/08/05 18:22:38;;;;;;;15.73;9.18;;;;;;;;;;6348898;22;20002;-82
2022/08/05 18:25:05;;;;;;;5.93;5.03;;;;;;;;;;6351366;22;19998;-82
2022/08/05 18:27:30;;;;;;;23.27;13.80;;;;;;;;;;6348206;22;20052;-84
2022/08/05 18:29:56;;;;;;;18.88;11.27;;;;;;;;;;6353063;22;19998;-86
2022/08/05 18:32:22;;;;;;;25.42;15.50;;;;;;;;;;6353925;22;19999;-86
2022/08/05 18:34:47;;;;;;;18.95;11.80;;;;;;;;;;6355221;22;20043;-84
2022/08/05 18:37:13;;;;;;;16.25;8.25;;;;;;;;;;6355980;22;20303;-87
2022/08/05 18:39:38;;;;;;;18.42;11.32;;;;;;;;;;6353813;22;20010;-85
2022/08/05 18:42:04;;;;;;;26.35;14.63;;;;;;;;;;6350720;22;20498;-85
2022/08/05 18:44:31;;;;;;;20.33;11.90;;;;;;;;;;6348564;22;20048;-87
2022/08/05 18:46:57;;;;;;;20.10;11.63;;;;;;;;;;6321570;22;20485;-88
2022/08/05 18:54:51;;;;;;;35.40;16.60;;;;;;;;;;6350592;22;20010;-86
2022/08/05 18:57:18;;;;;;;28.55;15.38;;;;;;;;;;6350538;22;19999;-89
2022/08/05 18:59:44;;;;;;;17.70;9.82;;;;;;;;;;6344305;22;20014;-88
2022/08/05 19:02:09;;;;;;;11.68;7.30;;;;;;;;;;6341463;22;20456;-88
2022/08/05 19:04:35;;;;;;;20.80;10.52;;;;;;;;;;6341739;22;20433;-88
2022/08/05 19:07:00;;;;;;;50.30;26.38;;;;;;;;;;6340568;22;20045;-86
2022/08/05 19:09:26;;;;;;;9.23;6.60;;;;;;;;;;6340451;22;20049;-85
2022/08/05 19:11:51;;;;;;;4.18;3.78;;;;;;;;;;6340561;22;20360;-86
2022/08/05 19:14:16;;;;;;;5.88;3.78;;;;;;;;;;6340853;22;20025;-88
2022/08/05 19:16:43;;;;;;;6.55;4.40;;;;;;;;;;6340732;22;20006;-86
2022/08/05 19:19:10;;;;;;;4.30;3.90;;;;;;;;;;6341182;22;20037;-87
2022/08/05 19:21:36;;;;;;;4.25;3.42;;;;;;;;;;6341538;22;20075;-85
2022/08/05 19:24:02;;;;;;;5.05;3.80;;;;;;;;;;6342846;22;20429;-90
2022/08/05 19:26:28;;;;;;;5.07;3.67;;;;;;;;;;6341345;22;19999;-86
2022/08/05 19:28:53;;;;;;;4.97;3.60;;;;;;;;;;6340871;22;20444;-89
2022/08/05 19:31:19;;;;;;;4.13;3.72;;;;;;;;;;6340631;22;20014;-88
2022/08/05 19:33:44;;;;;;;5.80;3.90;;;;;;;;;;6341336;22;20014;-84
2022/08/05 19:36:09;;;;;;;5.20;3.80;;;;;;;;;;6340725;22;20006;-83
2022/08/05 19:38:35;;;;;;;3.90;3.50;;;;;;;;;;6340334;22;20037;-85
2022/08/05 19:41:00;;;;;;;4.45;3.42;;;;;;;;;;6340410;22;20010;-83
2022/08/05 19:43:26;;;;;;;4.70;3.63;;;;;;;;;;6340074;22;20402;-89
2022/08/05 19:45:51;;;;;;;5.18;4.22;;;;;;;;;;6340939;22;20422;-86
2022/08/05 19:48:17;;;;;;;5.03;4.63;;;;;;;;;;6340857;22;19998;-88
2022/08/05 19:50:43;;;;;;;3.78;3.28;;;;;;;;;;6341047;22;20094;-85
2022/08/05 19:53:09;;;;;;;3.35;2.92;;;;;;;;;;6340372;22;19998;-81
2022/08/05 19:55:34;;;;;;;2.97;2.70;;;;;;;;;;6339400;22;19999;-81
2022/08/05 19:57:59;;;;;;;2.90;2.65;;;;;;;;;;6339859;22;20410;-83
2022/08/05 20:00:25;;;;;;;3.55;3.25;;;;;;;;;;6339786;22;20015;-82
2022/08/05 20:02:51;;;;;;;3.05;2.72;;;;;;;;;;6340881;22;20006;-82
2022/08/05 20:05:16;;;;;;;2.70;2.50;;;;;;;;;;6341251;22;19999;-85
2022/08/05 20:07:42;;;;;;;2.75;2.50;;;;;;;;;;6343125;22;20006;-87
2022/08/05 20:10:08;;;;;;;3.00;2.70;;;;;;;;;;6315106;22;20011;-84
2022/08/05 20:12:35;;;;;;;2.95;2.53;;;;;;;;;;6343013;22;20007;-85
2022/08/05 20:15:00;;;;;;;2.40;2.10;;;;;;;;;;6343585;22;20009;-90
2022/08/05 20:17:27;;;;;;;2.30;1.75;;;;;;;;;;6342205;22;20363;-88
2022/08/05 20:19:53;;;;;;;2.33;2.00;;;;;;;;;;6341796;22;20406;-88
2022/08/05 20:22:18;;;;;;;3.80;2.33;;;;;;;;;;6313317;22;20003;-86
2022/08/05 20:24:44;;;;;;;2.17;1.98;;;;;;;;;;6341240;22;20002;-87
2022/08/05 20:27:09;;;;;;;3.00;1.77;;;;;;;;;;6341537;22;20073;-90
2022/08/05 20:29:36;;;;;;;3.83;2.00;;;;;;;;;;6341643;22;20040;-88
2022/08/05 20:32:02;;;;;;;3.22;1.80;;;;;;;;;;6340843;22;19998;-89
2022/08/05 20:34:27;;;;;;;2.17;1.95;;;;;;;;;;6341668;22;20019;-89
2022/08/05 20:36:52;;;;;;;2.47;1.55;;;;;;;;;;6313441;22;20010;-88
2022/08/05 20:39:18;;;;;;;2.17;1.98;;;;;;;;;;6340617;22;20007;-87
2022/08/05 20:41:45;;;;;;;1.70;1.60;;;;;;;;;;6313800;22;20017;-89
2022/08/05 20:44:15;;;;;;;1.98;1.83;;;;;;;;;;6340816;22;20003;-90
2022/08/05 20:46:40;;;;;;;2.40;1.77;;;;;;;;;;6340431;22;20003;-88
2022/08/05 20:49:06;;;;;;;1.90;1.70;;;;;;;;;;6340437;22;20027;-89
2022/08/05 20:51:31;;;;;;;1.70;1.60;;;;;;;;;;6340088;22;20057;-89
2022/08/05 20:53:56;;;;;;;1.77;1.67;;;;;;;;;;6340115;22;20060;-89
2022/08/05 20:56:22;;;;;;;1.70;1.60;;;;;;;;;;6340828;22;20373;-88
2022/08/05 20:58:47;;;;;;;1.45;1.35;;;;;;;;;;6339511;22;20079;-89
2022/08/05 21:01:13;;;;;;;2.38;1.70;;;;;;;;;;6340179;22;20003;-89
2022/08/05 21:03:38;;;;;;;2.85;1.70;;;;;;;;;;6340289;22;20003;-89
2022/08/05 21:06:04;;;;;;;1.85;1.52;;;;;;;;;;6340041;22;20010;-87
2022/08/05 21:08:33;;;;;;;1.70;1.60;;;;;;;;;;6340609;22;19999;-89
2022/08/05 21:10:59;;;;;;;1.60;1.50;;;;;;;;;;6340395;22;20006;-89
2022/08/05 21:13:25;;;;;;;2.33;1.40;;;;;;;;;;6340131;22;20353;-87
2022/08/05 21:15:53;;;;;;;1.75;1.65;;;;;;;;;;6339930;22;20014;-86
2022/08/05 21:18:18;;;;;;;1.88;1.77;;;;;;;;;;6340010;22;20078;-88
2022/08/05 21:20:44;;;;;;;1.88;1.77;;;;;;;;;;6341387;22;19999;-89
2022/08/05 21:23:11;;;;;;;1.95;1.70;;;;;;;;;;6341899;22;19999;-86
2022/08/05 21:25:43;;;;;;;2.20;1.98;;;;;;;;;;6341706;22;20009;-88
2022/08/05 21:28:08;;;;;;;4.82;2.30;;;;;;;;;;6341592;22;20074;-84
2022/08/05 21:30:34;;;;;;;2.05;1.95;;;;;;;;;;6342076;22;20010;-89
2022/08/05 21:32:59;;;;;;;2.97;2.00;;;;;;;;;;6341699;22;19999;-88
2022/08/05 21:35:25;;;;;;;1.90;1.80;;;;;;;;;;6341264;22;20081;-86
2022/08/05 21:37:50;;;;;;;1.90;1.80;;;;;;;;;;6341846;22;20030;-89
2022/08/05 21:40:16;;;;;;;2.13;2.00;;;;;;;;;;6341870;22;20005;-90
2022/08/05 21:42:41;;;;;;;2.50;1.83;;;;;;;;;;6341586;22;20006;-90
2022/08/05 21:45:07;;;;;;;2.15;2.00;;;;;;;;;;6340855;22;20009;-90
2022/08/05 21:47:34;;;;;;;1.92;1.77;;;;;;;;;;6341672;22;20005;-90
2022/08/05 21:50:00;;;;;;;3.13;1.90;;;;;;;;;;6341817;22;20030;-89
2022/08/05 21:52:25;;;;;;;1.90;1.80;;;;;;;;;;6288207;22;20010;-90
2022/08/05 21:54:51;;;;;;;2.88;2.00;;;;;;;;;;6342025;22;19995;-90
2022/08/05 21:57:16;;;;;;;1.98;1.88;;;;;;;;;;6341641;22;20007;-90
2022/08/05 21:59:41;;;;;;;2.05;1.80;;;;;;;;;;6341073;22;20426;-89
2022/08/05 22:02:07;;;;;;;2.65;2.00;;;;;;;;;;6341028;22;20326;-89
2022/08/05 22:04:32;;;;;;;2.05;1.95;;;;;;;;;;6314546;22;20334;-88
2022/08/05 22:06:58;;;;;;;2.17;1.80;;;;;;;;;;6341719;22;20010;-90
2022/08/05 22:09:23;;;;;;;2.00;1.90;;;;;;;;;;6341147;22;20003;-90
2022/08/05 22:11:49;;;;;;;2.90;1.83;;;;;;;;;;6342077;22;20051;-88
2022/08/05 22:14:16;;;;;;;2.42;1.85;;;;;;;;;;6341355;22;19999;-87
2022/08/05 22:16:42;;;;;;;3.60;2.03;;;;;;;;;;6340684;22;20031;-88
2022/08/05 22:19:07;;;;;;;2.63;2.13;;;;;;;;;;6340794;22;19998;-88
2022/08/05 22:21:32;;;;;;;2.35;1.98;;;;;;;;;;6340786;22;20010;-88
2022/08/05 22:29:25;;;;;;;2.47;2.10;;;;;;;;;;6341297;22;20010;-87
